Time;durP1;ratioP1;P1;durP2;ratioP2;P2;SDS_P1;SDS_P2;PMS_P1;PMS_P2;Temp;Humidity;BMP_temperature;BMP_pressure;BME280_temperature;BME280_humidity;BME280_pressure;Samples;Min_cycle;Max_cycle;Signal;HPM_P1;HPM_P2
2022/03/02 00:00:55;;;;;;;;;;;;;;;3.36;35.47;100846.16;4426433;32;34215;-85
2022/03/02 00:03:25;;;;;;;;;;;;;;;3.40;35.56;100840.66;4432453;32;35309;-86
2022/03/02 00:05:54;;;;;;;;;;;;;;;3.39;35.30;100844.22;4420173;32;32572;-88
2022/03/02 00:08:31;;;;;;;;;;;;;;;3.25;35.61;100837.94;4423942;32;33224;-82
2022/03/02 00:11:06;;;;;;;;;;;;;;;3.24;35.75;100833.59;4413549;32;34498;-85
2022/03/02 00:13:34;;;;;;;;;;;;;;;3.25;35.77;100830.03;4415278;32;35237;-83
2022/03/02 00:16:03;;;;;;;;;;;;;;;3.16;36.01;100830.47;4412806;32;34907;-86
2022/03/02 00:18:39;;;;;;;;;;;;;;;3.23;35.77;100837.16;4417196;32;33390;-84
2022/03/02 00:21:07;;;;;;;;;;;;;;;2.65;37.61;100847.81;4406865;32;32469;-86
2022/03/02 00:23:34;;;;;;;;;;;;;;;2.78;37.79;100837.50;4402843;32;35019;-86
2022/03/02 00:26:04;;;;;;;;;;;;;;;2.67;37.98;100834.53;4403166;32;34892;-85
2022/03/02 00:28:34;;;;;;;;;;;;;;;2.17;39.53;100839.50;4392967;32;32402;-85
2022/03/02 00:31:02;;;;;;;;;;;;;;;2.57;38.37;100835.03;4402522;32;34852;-86
2022/03/02 00:33:32;;;;;;;;;;;;;;;2.49;38.41;100837.16;4420213;32;34797;-84
2022/03/02 00:35:59;;;;;;;;;;;;;;;2.37;39.38;100834.22;4407125;32;34376;-86
2022/03/02 00:38:27;;;;;;;;;;;;;;;2.09;39.49;100836.34;4392426;32;34826;-82
2022/03/02 00:40:56;;;;;;;;;;;;;;;2.45;38.66;100826.84;4408957;32;34758;-86
2022/03/02 00:43:24;;;;;;;;;;;;;;;2.45;38.14;100814.56;4408567;32;34263;-83
2022/03/02 00:45:51;;;;;;;;;;;;;;;2.59;37.69;100812.16;4423560;32;34789;-88
2022/03/02 00:48:20;;;;;;;;;;;;;;;2.59;37.26;100811.31;4403984;32;33477;-84
2022/03/02 00:50:49;;;;;;;;;;;;;;;2.36;38.27;100807.09;4412512;32;34532;-80
2022/03/02 00:53:17;;;;;;;;;;;;;;;2.34;38.59;100808.94;4403130;32;35230;-89
2022/03/02 00:55:46;;;;;;;;;;;;;;;2.27;38.10;100797.00;4385065;32;32511;-85
2022/03/02 00:58:14;;;;;;;;;;;;;;;2.25;38.57;100795.38;4382564;32;813514;-84
2022/03/02 01:00:42;;;;;;;;;;;;;;;2.29;37.87;100789.06;4412942;32;34668;-87
2022/03/02 01:03:10;;;;;;;;;;;;;;;2.42;37.54;100787.59;4402054;32;34325;-86
2022/03/02 01:05:39;;;;;;;;;;;;;;;2.41;37.60;100788.50;4411271;32;34328;-84
2022/03/02 01:08:07;;;;;;;;;;;;;;;2.36;37.66;100783.47;4419066;32;32884;-85
2022/03/02 01:10:35;;;;;;;;;;;;;;;2.34;37.70;100782.69;4410019;32;32703;-87
2022/03/02 01:13:02;;;;;;;;;;;;;;;2.36;37.65;100780.84;4416597;32;34590;-82
2022/03/02 01:15:30;;;;;;;;;;;;;;;2.29;37.86;100778.56;4422672;32;34230;-84
2022/03/02 01:17:58;;;;;;;;;;;;;;;2.28;37.81;100775.09;4411500;32;34640;-82
2022/03/02 01:20:26;;;;;;;;;;;;;;;1.79;39.72;100774.69;4419182;32;32548;-90
2022/03/02 01:22:54;;;;;;;;;;;;;;;2.07;38.73;100772.56;4411389;32;34528;-86
2022/03/02 01:25:23;;;;;;;;;;;;;;;1.96;38.98;100767.78;4422734;32;34667;-81
2022/03/02 01:27:54;;;;;;;;;;;;;;;1.77;39.83;100766.88;4404361;32;33059;-84
2022/03/02 01:30:23;;;;;;;;;;;;;;;1.91;39.46;100761.03;4408853;32;34214;-87
2022/03/02 01:32:52;;;;;;;;;;;;;;;2.11;38.70;100755.75;4405533;32;34910;-88
2022/03/02 01:35:19;;;;;;;;;;;;;;;2.04;38.72;100754.31;4421196;32;34933;-86
2022/03/02 01:37:50;;;;;;;;;;;;;;;1.97;38.71;100756.38;4420980;32;33751;-85
2022/03/02 01:40:18;;;;;;;;;;;;;;;2.02;38.50;100750.91;4423615;32;33096;-82
2022/03/02 01:42:45;;;;;;;;;;;;;;;2.04;38.31;100749.06;4418080;32;35736;-86
2022/03/02 01:45:14;;;;;;;;;;;;;;;1.74;39.01;100753.91;4418548;32;34704;-90
2022/03/02 01:47:42;;;;;;;;;;;;;;;1.73;39.54;100746.09;4420773;32;33607;-87
2022/03/02 01:50:10;;;;;;;;;;;;;;;1.44;40.21;100738.63;4423387;32;33979;-81
2022/03/02 01:52:38;;;;;;;;;;;;;;;1.54;40.18;100739.94;4420037;32;35792;-87
2022/03/02 01:55:06;;;;;;;;;;;;;;;1.56;39.88;100735.47;4421198;32;35285;-88
2022/03/02 01:57:34;;;;;;;;;;;;;;;1.37;40.32;100745.91;4421551;32;33005;-90
2022/03/02 02:00:05;;;;;;;;;;;;;;;1.53;40.15;100741.69;4421836;32;33350;-86
2022/03/02 02:02:35;;;;;;;;;;;;;;;1.31;40.72;100745.31;4410520;32;35188;-85
2022/03/02 02:05:04;;;;;;;;;;;;;;;1.04;41.94;100747.28;4409771;32;32886;-90
2022/03/02 02:07:32;;;;;;;;;;;;;;;1.14;41.43;100746.00;4409447;32;32523;-91
2022/03/02 02:09:59;;;;;;;;;;;;;;;1.02;41.74;100743.88;4430474;32;34185;-88
2022/03/02 02:12:28;;;;;;;;;;;;;;;1.04;41.34;100731.56;4442049;32;34946;-89
2022/03/02 02:14:56;;;;;;;;;;;;;;;1.00;42.07;100736.97;4418770;32;34598;-87
2022/03/02 02:17:23;;;;;;;;;;;;;;;1.25;40.94;100733.28;4428543;32;32954;-86
2022/03/02 02:19:52;;;;;;;;;;;;;;;1.14;41.29;100726.81;4440063;32;34247;-87
2022/03/02 02:22:20;;;;;;;;;;;;;;;0.91;42.25;100732.97;4454560;32;36158;-88
2022/03/02 02:24:48;;;;;;;;;;;;;;;1.17;41.00;100730.16;4424882;32;34618;-83
2022/03/02 02:27:16;;;;;;;;;;;;;;;0.83;42.09;100735.06;4439523;32;33348;-86
2022/03/02 02:29:44;;;;;;;;;;;;;;;0.74;42.21;100729.31;4455019;32;34227;-89
2022/03/02 02:32:11;;;;;;;;;;;;;;;1.07;41.62;100728.84;4424340;32;33114;-88
2022/03/02 02:34:40;;;;;;;;;;;;;;;1.09;41.45;100727.00;4453413;32;35316;-84
2022/03/02 02:37:08;;;;;;;;;;;;;;;0.99;41.58;100741.38;4438273;32;32712;-86
2022/03/02 02:39:36;;;;;;;;;;;;;;;1.04;41.32;100728.09;4437417;32;33802;-85
2022/03/02 02:42:05;;;;;;;;;;;;;;;0.96;41.65;100732.81;4440115;32;35192;-89
2022/03/02 02:44:34;;;;;;;;;;;;;;;0.78;42.19;100731.75;4414202;32;34668;-89
2022/03/02 02:47:02;;;;;;;;;;;;;;;1.00;41.71;100726.50;4426468;32;32409;-86
2022/03/02 02:49:30;;;;;;;;;;;;;;;0.55;42.88;100733.56;4425947;32;34270;-83
2022/03/02 02:51:58;;;;;;;;;;;;;;;0.90;41.88;100730.41;4424994;32;35545;-90
2022/03/02 02:54:26;;;;;;;;;;;;;;;0.69;42.54;100728.66;4439825;32;34085;-85
2022/03/02 02:56:54;;;;;;;;;;;;;;;0.86;42.08;100732.31;4438046;32;33373;-82
2022/03/02 02:59:21;;;;;;;;;;;;;;;0.68;42.15;100734.81;4451629;32;33910;-87
2022/03/02 03:01:49;;;;;;;;;;;;;;;0.75;41.79;100734.50;4438835;32;35492;-83
2022/03/02 03:04:17;;;;;;;;;;;;;;;0.78;42.00;100733.53;4435055;32;34222;-88
2022/03/02 03:06:45;;;;;;;;;;;;;;;0.81;41.64;100736.03;4452417;32;33458;-89
2022/03/02 03:09:16;;;;;;;;;;;;;;;0.77;41.75;100735.28;4453726;32;33280;-85
2022/03/02 03:11:44;;;;;;;;;;;;;;;0.42;42.71;100737.56;4439487;32;34634;-86
2022/03/02 03:14:12;;;;;;;;;;;;;;;0.16;43.78;100737.69;4427547;32;35755;-86
2022/03/02 03:16:41;;;;;;;;;;;;;;;0.51;42.66;100737.22;4441813;32;33714;-88
2022/03/02 03:19:09;;;;;;;;;;;;;;;0.51;42.21;100738.09;4438193;32;34009;-85
2022/03/02 03:21:36;;;;;;;;;;;;;;;0.22;43.16;100740.94;4439719;32;35295;-89
2022/03/02 03:24:04;;;;;;;;;;;;;;;0.10;43.11;100738.78;4439647;32;34731;-87
2022/03/02 03:26:32;;;;;;;;;;;;;;;0.34;42.83;100735.25;4426626;32;32684;-89
2022/03/02 03:29:00;;;;;;;;;;;;;;;0.09;43.77;100736.22;4427810;32;34217;-83
2022/03/02 03:31:27;;;;;;;;;;;;;;;0.16;43.39;100730.72;4443191;32;36202;-85
2022/03/02 03:33:56;;;;;;;;;;;;;;;0.10;43.70;100736.16;4438585;32;34215;-85
2022/03/02 03:36:23;;;;;;;;;;;;;;;0.16;43.61;100740.31;4441671;32;32042;-87
2022/03/02 03:38:50;;;;;;;;;;;;;;;0.37;43.24;100732.53;4426873;32;34043;-86
2022/03/02 03:41:18;;;;;;;;;;;;;;;0.42;43.18;100734.97;4441415;32;35059;-85
2022/03/02 03:43:47;;;;;;;;;;;;;;;0.55;42.48;100728.31;4436545;32;34634;-85
2022/03/02 03:46:14;;;;;;;;;;;;;;;0.37;42.66;100729.03;4426658;32;33241;-90
2022/03/02 03:48:42;;;;;;;;;;;;;;;0.29;42.96;100728.50;4439865;32;33913;-85
2022/03/02 03:51:10;;;;;;;;;;;;;;;0.40;42.94;100729.78;4427225;32;36841;-86
2022/03/02 03:53:37;;;;;;;;;;;;;;;0.22;43.60;100733.09;4440275;32;35341;-91
2022/03/02 03:56:05;;;;;;;;;;;;;;;0.03;43.88;100723.38;4426106;32;33322;-89
2022/03/02 03:58:32;;;;;;;;;;;;;;;0.23;43.30;100720.88;4439444;32;34228;-88
2022/03/02 04:01:00;;;;;;;;;;;;;;;0.08;43.65;100717.06;4452862;32;35591;-85
2022/03/02 04:03:28;;;;;;;;;;;;;;;0.13;43.66;100722.13;4436866;32;34709;-90
2022/03/02 04:05:56;;;;;;;;;;;;;;;0.28;43.08;100724.19;4409505;32;33506;-86
2022/03/02 04:08:24;;;;;;;;;;;;;;;0.51;42.62;100718.91;4440355;32;34067;-82
2022/03/02 04:10:53;;;;;;;;;;;;;;;0.47;42.60;100712.94;4436687;32;34873;-86
2022/03/02 04:13:21;;;;;;;;;;;;;;;0.48;42.48;100712.00;4437825;32;34829;-87
2022/03/02 04:15:50;;;;;;;;;;;;;;;0.14;43.70;100714.22;4422230;32;33346;-87
2022/03/02 04:18:19;;;;;;;;;;;;;;;0.29;43.42;100710.19;4424652;32;35783;-88
2022/03/02 04:20:52;;;;;;;;;;;;;;;0.36;42.97;100719.47;4412222;32;34502;-86
2022/03/02 04:23:25;;;;;;;;;;;;;;;0.13;43.48;100722.13;4427079;32;33484;-89
2022/03/02 04:25:59;;;;;;;;;;;;;;;0.17;43.73;100718.47;4415888;32;31894;-81
2022/03/02 04:28:30;;;;;;;;;;;;;;;-0.21;44.95;100718.19;4436328;32;34129;-86
2022/03/02 04:31:00;;;;;;;;;;;;;;;0.10;44.20;100712.63;4422850;32;33475;-87
2022/03/02 04:33:31;;;;;;;;;;;;;;;0.12;44.16;100709.97;4426224;32;33882;-85
2022/03/02 04:36:00;;;;;;;;;;;;;;;0.14;44.00;100714.22;4426148;32;33662;-83
2022/03/02 04:38:32;;;;;;;;;;;;;;;0.29;43.65;100712.81;4436559;32;33388;-83
2022/03/02 04:41:00;;;;;;;;;;;;;;;0.38;43.22;100710.66;4438409;32;35742;-87
2022/03/02 04:43:29;;;;;;;;;;;;;;;0.24;44.04;100705.13;4436781;32;34984;-88
2022/03/02 04:45:57;;;;;;;;;;;;;;;0.18;44.03;100700.12;4435804;32;34119;-84
2022/03/02 04:48:25;;;;;;;;;;;;;;;0.27;43.76;100696.28;4422884;32;34485;-90
2022/03/02 04:50:53;;;;;;;;;;;;;;;0.33;43.33;100691.69;4424431;32;35107;-89
2022/03/02 04:53:23;;;;;;;;;;;;;;;0.09;44.14;100694.34;4436511;32;34699;-87
2022/03/02 04:55:52;;;;;;;;;;;;;;;0.22;43.68;100691.22;4424959;32;31498;-90
2022/03/02 04:58:21;;;;;;;;;;;;;;;-0.16;44.53;100690.97;4438865;32;33032;-89
2022/03/02 05:00:49;;;;;;;;;;;;;;;-0.01;44.30;100695.63;4420407;32;34515;-84
2022/03/02 05:03:17;;;;;;;;;;;;;;;-0.07;44.76;100685.41;4426004;32;34356;-83
2022/03/02 05:05:47;;;;;;;;;;;;;;;0.14;43.81;100680.22;4412010;32;32839;-83
2022/03/02 05:08:14;;;;;;;;;;;;;;;0.10;43.61;100685.63;4423997;32;32139;-88
2022/03/02 05:10:42;;;;;;;;;;;;;;;0.24;43.17;100676.34;4443782;32;36847;-87
2022/03/02 05:13:11;;;;;;;;;;;;;;;0.22;43.11;100678.13;4411861;32;32839;-88
2022/03/02 05:15:38;;;;;;;;;;;;;;;0.10;44.00;100689.06;4431959;32;34212;-89
2022/03/02 05:18:07;;;;;;;;;;;;;;;0.11;43.78;100690.78;4435799;32;32572;-87
2022/03/02 05:20:36;;;;;;;;;;;;;;;0.11;43.78;100684.72;4420767;32;35682;-86
2022/03/02 05:23:04;;;;;;;;;;;;;;;0.16;43.62;100683.63;4422059;32;34616;-86
2022/03/02 05:25:35;;;;;;;;;;;;;;;0.09;44.42;100689.13;4411898;32;34015;-84
2022/03/02 05:28:03;;;;;;;;;;;;;;;-0.08;45.03;100694.16;4452945;32;35749;-86
2022/03/02 05:30:31;;;;;;;;;;;;;;;-0.15;45.16;100690.06;4428222;32;34570;-83
2022/03/02 05:33:00;;;;;;;;;;;;;;;-0.03;44.87;100689.59;4436475;32;34353;-84
2022/03/02 05:35:27;;;;;;;;;;;;;;;-0.20;45.26;100686.75;4450611;32;33187;-79
2022/03/02 05:37:55;;;;;;;;;;;;;;;-0.26;46.41;100679.12;4448741;32;34217;-79
2022/03/02 05:40:23;;;;;;;;;;;;;;;-0.03;45.57;100684.37;4456795;32;36124;-86
2022/03/02 05:42:53;;;;;;;;;;;;;;;-0.03;45.44;100690.47;4422048;32;34784;-83
2022/03/02 05:45:22;;;;;;;;;;;;;;;0.20;45.25;100692.22;4419884;32;34999;-82
2022/03/02 05:47:50;;;;;;;;;;;;;;;0.18;45.10;100681.78;4439301;32;34161;-84
2022/03/02 05:50:18;;;;;;;;;;;;;;;0.23;45.04;100685.09;4408022;32;34590;-84
2022/03/02 05:52:45;;;;;;;;;;;;;;;0.28;44.91;100677.09;4450986;32;35237;-84
2022/03/02 05:55:13;;;;;;;;;;;;;;;0.15;45.60;100667.97;4410541;32;34718;-84
2022/03/02 05:57:41;;;;;;;;;;;;;;;0.34;45.34;100677.69;4454521;32;34939;-80
2022/03/02 06:00:09;;;;;;;;;;;;;;;0.47;44.70;100684.13;4417771;32;35133;-83
2022/03/02 06:02:37;;;;;;;;;;;;;;;0.24;45.45;100676.34;4422303;32;34702;-78
2022/03/02 06:05:05;;;;;;;;;;;;;;;0.18;46.28;100671.34;4432295;32;33301;-86
2022/03/02 06:07:34;;;;;;;;;;;;;;;0.52;45.63;100679.59;4450230;32;33411;-82
2022/03/02 06:10:02;;;;;;;;;;;;;;;0.59;45.13;100670.56;4448381;32;34835;-82
2022/03/02 06:12:30;;;;;;;;;;;;;;;0.61;45.37;100680.97;4439465;32;34155;-85
2022/03/02 06:14:58;;;;;;;;;;;;;;;0.69;45.25;100671.06;4443610;32;32580;-83
2022/03/02 06:17:26;;;;;;;;;;;;;;;0.81;44.76;100666.19;4437851;32;35252;-86
2022/03/02 06:19:54;;;;;;;;;;;;;;;0.61;46.28;100678.34;4425317;32;35678;-77
2022/03/02 06:22:22;;;;;;;;;;;;;;;0.87;45.51;100675.53;4438565;32;34310;-85
2022/03/02 06:24:51;;;;;;;;;;;;;;;0.99;44.99;100669.78;4443363;32;33694;-84
2022/03/02 06:27:21;;;;;;;;;;;;;;;0.96;44.97;100675.16;4422014;32;36002;-86
2022/03/02 06:29:49;;;;;;;;;;;;;;;1.14;44.48;100672.62;4420054;32;34740;-83
2022/03/02 06:32:17;;;;;;;;;;;;;;;1.27;44.20;100678.19;4456559;32;34958;-84
2022/03/02 06:34:44;;;;;;;;;;;;;;;1.47;43.49;100678.19;4456968;32;34343;-83
2022/03/02 06:37:13;;;;;;;;;;;;;;;1.51;43.35;100666.66;4421531;32;34474;-85
2022/03/02 06:39:41;;;;;;;;;;;;;;;1.64;42.69;100673.06;4439930;32;33729;-86
2022/03/02 06:42:11;;;;;;;;;;;;;;;1.53;42.88;100676.16;4436643;32;34510;-83
2022/03/02 06:44:55;;;;;;;;;;;;;;;1.64;42.59;100676.56;4453383;32;33328;-85
2022/03/02 06:47:24;;;;;;;;;;;;;;;1.76;42.81;100672.50;4446444;32;32533;-84
2022/03/02 06:49:57;;;;;;;;;;;;;;;1.85;43.18;100670.34;4441142;32;34677;-83
2022/03/02 06:52:27;;;;;;;;;;;;;;;2.06;41.96;100666.75;4439017;32;34512;-88
2022/03/02 06:54:54;;;;;;;;;;;;;;;2.22;41.58;100667.75;4431819;32;33194;-89
2022/03/02 06:57:24;;;;;;;;;;;;;;;1.94;42.35;100663.81;4435329;32;33505;-84
2022/03/02 06:59:53;;;;;;;;;;;;;;;2.47;41.35;100662.19;4413534;32;34557;-85
2022/03/02 07:02:39;;;;;;;;;;;;;;;2.16;42.46;100662.75;4444382;32;32576;-88
2022/03/02 07:05:08;;;;;;;;;;;;;;;2.62;42.00;100666.72;4422610;32;31983;-85
2022/03/02 07:07:35;;;;;;;;;;;;;;;2.60;41.77;100661.53;4454633;32;34074;-84
2022/03/02 07:10:06;;;;;;;;;;;;;;;2.64;42.09;100660.44;4439284;32;34499;-82
2022/03/02 07:12:34;;;;;;;;;;;;;;;3.01;42.12;100662.97;4434749;32;34588;-86
2022/03/02 07:15:02;;;;;;;;;;;;;;;3.35;40.69;100655.09;4422625;32;32571;-87
2022/03/02 07:17:32;;;;;;;;;;;;;;;2.95;41.02;100658.03;4435727;32;33572;-80
2022/03/02 07:20:04;;;;;;;;;;;;;;;3.45;40.83;100651.94;4438733;32;35407;-86
2022/03/02 07:22:33;;;;;;;;;;;;;;;3.58;40.19;100652.16;4421774;32;34884;-85
2022/03/02 07:25:03;;;;;;;;;;;;;;;3.82;39.86;100646.44;4424471;32;32326;-83
2022/03/02 07:27:31;;;;;;;;;;;;;;;3.94;39.29;100640.50;4440888;32;34554;-87
2022/03/02 07:29:59;;;;;;;;;;;;;;;3.95;39.70;100647.47;4426328;32;35862;-85
2022/03/02 07:32:31;;;;;;;;;;;;;;;4.01;39.44;100635.75;4415509;32;32943;-88
2022/03/02 07:35:02;;;;;;;;;;;;;;;3.94;40.31;100627.34;4424677;32;33484;-86
2022/03/02 07:37:33;;;;;;;;;;;;;;;4.46;38.85;100630.59;4430666;32;32806;-86
2022/03/02 07:40:03;;;;;;;;;;;;;;;4.44;38.36;100635.94;4438121;32;34423;-84
2022/03/02 07:42:33;;;;;;;;;;;;;;;4.65;37.66;100628.62;4444844;32;33729;-85
2022/03/02 07:45:04;;;;;;;;;;;;;;;4.79;37.81;100634.78;4420289;32;33304;-85
2022/03/02 07:47:48;;;;;;;;;;;;;;;4.87;38.38;100629.06;4434600;32;33601;-83
2022/03/02 07:50:18;;;;;;;;;;;;;;;4.78;37.61;100622.56;4436711;32;34882;-84
2022/03/02 07:52:53;;;;;;;;;;;;;;;4.84;37.13;100624.00;4421208;32;34279;-86
2022/03/02 07:55:29;;;;;;;;;;;;;;;4.96;37.39;100632.03;4431552;32;32727;-87
2022/03/02 07:58:01;;;;;;;;;;;;;;;4.94;37.25;100625.16;4439478;32;33930;-86
2022/03/02 08:00:48;;;;;;;;;;;;;;;5.02;36.75;100615.88;4441505;32;35550;-85
2022/03/02 08:03:23;;;;;;;;;;;;;;;5.32;36.16;100613.19;4423285;32;34283;-87
2022/03/02 08:05:59;;;;;;;;;;;;;;;5.58;36.52;100613.34;4423884;32;33339;-86
2022/03/02 08:08:50;;;;;;;;;;;;;;;5.74;35.48;100614.06;4433174;32;34074;-87
2022/03/02 08:11:37;;;;;;;;;;;;;;;5.60;35.72;100603.53;4433283;32;35053;-86
2022/03/02 08:14:09;;;;;;;;;;;;;;;5.54;36.69;100606.53;4438267;32;33810;-86
2022/03/02 08:16:38;;;;;;;;;;;;;;;5.58;36.33;100600.97;4421861;32;32398;-88
2022/03/02 08:19:13;;;;;;;;;;;;;;;5.78;35.71;100591.84;4432006;32;34102;-88
2022/03/02 08:21:46;;;;;;;;;;;;;;;5.84;36.50;100599.41;4433922;32;35715;-86
2022/03/02 08:24:19;;;;;;;;;;;;;;;6.15;35.83;100594.75;4424764;32;33029;-88
2022/03/02 08:26:49;;;;;;;;;;;;;;;6.08;35.14;100593.41;4436495;32;33791;-87
2022/03/02 08:29:19;;;;;;;;;;;;;;;6.25;35.71;100587.09;4419968;32;33255;-88
2022/03/02 08:31:48;;;;;;;;;;;;;;;6.06;35.04;100586.56;4425900;32;35180;-85
2022/03/02 08:34:17;;;;;;;;;;;;;;;6.12;35.08;100573.81;4436884;32;34384;-85
2022/03/02 08:36:47;;;;;;;;;;;;;;;6.24;35.45;100573.00;4436207;32;34429;-88
2022/03/02 08:39:15;;;;;;;;;;;;;;;6.52;35.06;100570.28;4435458;32;33911;-86
2022/03/02 08:42:03;;;;;;;;;;;;;;;6.40;34.64;100565.81;4428539;32;35992;-84
2022/03/02 08:44:38;;;;;;;;;;;;;;;6.82;34.08;100568.25;4432766;32;32812;-87
2022/03/02 08:47:09;;;;;;;;;;;;;;;6.57;34.27;100572.63;4439593;32;32615;-86
2022/03/02 08:49:37;;;;;;;;;;;;;;;6.96;34.70;100562.91;4425167;32;32574;-86
2022/03/02 08:52:10;;;;;;;;;;;;;;;6.82;34.24;100560.31;4424989;32;34349;-90
2022/03/02 08:54:46;;;;;;;;;;;;;;;6.85;36.22;100561.91;4431151;32;34428;-87
2022/03/02 08:57:15;;;;;;;;;;;;;;;7.23;33.70;100550.44;4425335;32;33234;-87
2022/03/02 08:59:49;;;;;;;;;;;;;;;7.21;34.25;100551.50;4426466;32;34217;-88
2022/03/02 09:02:20;;;;;;;;;;;;;;;7.21;34.24;100549.72;4419775;32;34229;-89
2022/03/02 09:04:47;;;;;;;;;;;;;;;6.90;34.61;100538.66;4434355;32;33521;-88
2022/03/02 09:07:17;;;;;;;;;;;;;;;7.20;34.00;100542.72;4422117;32;32907;-88
2022/03/02 09:09:48;;;;;;;;;;;;;;;7.09;33.01;100547.06;4427616;32;33484;-89
2022/03/02 09:12:17;;;;;;;;;;;;;;;7.11;34.94;100545.16;4438931;32;33910;-89
2022/03/02 09:14:50;;;;;;;;;;;;;;;7.35;34.43;100536.38;4417512;32;33933;-89
2022/03/02 09:19:56;;;;;;;;;;;;;;;7.90;32.93;100534.19;4465589;26;33608;-79
2022/03/02 09:22:25;;;;;;;;;;;;;;;7.64;33.11;100534.34;4427298;32;35420;-79
2022/03/02 09:24:52;;;;;;;;;;;;;;;8.08;33.18;100530.22;4449740;32;33953;-79
2022/03/02 09:27:20;;;;;;;;;;;;;;;8.05;31.82;100521.63;4432802;32;33280;-79
2022/03/02 09:29:48;;;;;;;;;;;;;;;8.59;32.97;100515.78;4437554;32;32746;-79
2022/03/02 09:32:16;;;;;;;;;;;;;;;8.43;31.22;100531.19;4429838;32;34884;-79
2022/03/02 09:34:49;;;;;;;;;;;;;;;8.59;32.43;100513.16;4444521;32;34643;-79
2022/03/02 09:37:17;;;;;;;;;;;;;;;8.89;30.13;100514.34;4441780;32;33044;-79
2022/03/02 09:39:48;;;;;;;;;;;;;;;8.43;31.13;100512.63;4440763;32;33468;-79
2022/03/02 09:42:19;;;;;;;;;;;;;;;8.95;31.03;100505.06;4445392;32;36090;-79
2022/03/02 09:44:49;;;;;;;;;;;;;;;8.83;31.24;100511.31;4449506;32;35034;-79
2022/03/02 09:47:18;;;;;;;;;;;;;;;9.27;30.35;100506.94;4450877;32;32901;-79
2022/03/02 09:49:51;;;;;;;;;;;;;;;9.16;30.10;100509.59;4423446;32;33344;-80
2022/03/02 09:52:22;;;;;;;;;;;;;;;9.39;29.04;100507.81;4437019;32;33458;-79
2022/03/02 09:54:53;;;;;;;;;;;;;;;9.19;30.14;100501.37;4438212;32;35112;-79
2022/03/02 09:57:21;;;;;;;;;;;;;;;9.14;30.16;100505.34;4448501;32;34243;-79
2022/03/02 09:59:51;;;;;;;;;;;;;;;9.19;30.14;100501.37;4441847;32;34552;-79
2022/03/02 10:02:37;;;;;;;;;;;;;;;8.92;30.48;100498.22;4456736;32;34547;-80
2022/03/02 10:05:08;;;;;;;;;;;;;;;9.46;29.12;100499.22;4442607;32;34390;-79
2022/03/02 10:07:37;;;;;;;;;;;;;;;9.59;29.29;100493.81;4441901;32;32749;-79
2022/03/02 10:10:07;;;;;;;;;;;;;;;9.23;30.12;100492.22;4445960;32;34264;-79
2022/03/02 10:12:36;;;;;;;;;;;;;;;9.49;29.61;100488.37;4452936;32;34405;-79
2022/03/02 10:15:08;;;;;;;;;;;;;;;9.68;29.69;100488.63;4450997;32;35573;-79
2022/03/02 10:17:41;;;;;;;;;;;;;;;9.57;28.08;100480.66;4436524;32;33391;-79
2022/03/02 10:20:13;;;;;;;;;;;;;;;9.73;28.33;100472.31;4458401;32;34689;-79
2022/03/02 10:22:41;;;;;;;;;;;;;;;10.20;26.89;100478.16;4438517;32;34833;-78
2022/03/02 10:25:09;;;;;;;;;;;;;;;10.04;26.72;100468.91;4454881;32;34187;-79
2022/03/02 10:27:43;;;;;;;;;;;;;;;9.54;28.33;100469.44;4449234;32;32679;-79
2022/03/02 10:30:11;;;;;;;;;;;;;;;9.60;27.31;100463.59;4446280;32;34859;-79
2022/03/02 10:32:42;;;;;;;;;;;;;;;9.04;29.29;100462.75;4441241;32;34042;-79
2022/03/02 10:35:10;;;;;;;;;;;;;;;9.09;29.31;100457.09;4440608;32;34778;-79
2022/03/02 10:37:39;;;;;;;;;;;;;;;9.06;30.11;100457.31;4434023;32;32586;-79
2022/03/02 10:40:09;;;;;;;;;;;;;;;9.73;29.67;100448.41;4457561;32;34929;-80
2022/03/02 10:42:38;;;;;;;;;;;;;;;9.97;29.39;100449.06;4466072;32;34833;-79
2022/03/02 10:45:11;;;;;;;;;;;;;;;10.04;29.75;100445.81;4430624;32;34805;-79
2022/03/02 10:47:42;;;;;;;;;;;;;;;10.55;27.95;100446.81;4440623;32;33065;-79
2022/03/02 10:50:09;;;;;;;;;;;;;;;10.02;28.76;100445.09;4442819;32;34817;-79
2022/03/02 10:52:38;;;;;;;;;;;;;;;10.09;29.16;100434.81;4442312;32;34845;-79
2022/03/02 10:55:07;;;;;;;;;;;;;;;10.33;27.38;100430.13;4444169;32;35114;-79
2022/03/02 10:57:35;;;;;;;;;;;;;;;10.82;28.57;100420.53;4427204;32;33015;-79
2022/03/02 11:00:09;;;;;;;;;;;;;;;10.80;27.21;100416.31;4460769;32;33997;-79
2022/03/02 11:02:38;;;;;;;;;;;;;;;11.02;26.43;100414.34;4449104;32;34929;-79
2022/03/02 11:05:06;;;;;;;;;;;;;;;10.85;27.56;100403.47;4441968;32;34173;-79
2022/03/02 11:07:34;;;;;;;;;;;;;;;11.07;26.39;100396.19;4422514;32;33481;-79
2022/03/02 11:10:03;;;;;;;;;;;;;;;10.74;27.10;100401.72;4431994;32;33191;-79
2022/03/02 11:12:31;;;;;;;;;;;;;;;11.32;27.87;100401.03;4459022;32;36524;-79
2022/03/02 11:15:01;;;;;;;;;;;;;;;11.21;28.58;100390.47;4415593;32;35423;-79
2022/03/02 11:17:29;;;;;;;;;;;;;;;11.77;26.62;100389.84;4444213;32;32588;-79
2022/03/02 11:19:58;;;;;;;;;;;;;;;11.87;27.21;100388.06;4437961;32;34537;-77
2022/03/02 11:22:26;;;;;;;;;;;;;;;12.08;25.11;100383.44;4438743;32;34921;-79
2022/03/02 11:24:55;;;;;;;;;;;;;;;11.93;25.53;100386.66;4434296;32;34013;-79
2022/03/02 11:27:27;;;;;;;;;;;;;;;11.97;25.90;100380.03;4435171;32;31710;-79
2022/03/02 11:30:05;;;;;;;;;;;;;;;11.25;28.31;100375.06;4426863;32;33884;-79
2022/03/02 11:32:33;;;;;;;;;;;;;;;11.66;26.41;100375.81;4434498;32;35002;-79
2022/03/02 11:35:04;;;;;;;;;;;;;;;12.17;26.29;100374.59;4441835;32;34872;-80
2022/03/02 11:37:32;;;;;;;;;;;;;;;12.01;25.67;100358.28;4434605;32;33141;-80
2022/03/02 11:40:00;;;;;;;;;;;;;;;11.86;25.15;100362.37;4430753;32;33835;-79
2022/03/02 11:42:29;;;;;;;;;;;;;;;12.12;25.82;100355.47;4432843;32;35413;-80
2022/03/02 11:44:57;;;;;;;;;;;;;;;11.86;26.12;100354.38;4430658;32;33402;-79
2022/03/02 11:47:25;;;;;;;;;;;;;;;12.39;25.17;100352.94;4419293;32;33924;-80
2022/03/02 11:49:53;;;;;;;;;;;;;;;12.26;25.88;100348.87;4441862;32;33845;-79
2022/03/02 11:52:21;;;;;;;;;;;;;;;12.43;24.71;100348.16;4438706;32;34887;-80
2022/03/02 11:54:50;;;;;;;;;;;;;;;11.94;25.44;100349.19;4434750;32;35855;-79
2022/03/02 11:57:19;;;;;;;;;;;;;;;12.20;25.29;100341.47;4434725;32;34120;-79
2022/03/02 11:59:47;;;;;;;;;;;;;;;12.26;24.82;100333.72;4438210;32;35517;-79
2022/03/02 12:02:16;;;;;;;;;;;;;;;12.00;25.25;100331.78;4427446;32;35093;-80
2022/03/02 12:05:00;;;;;;;;;;;;;;;12.16;25.07;100321.38;4441305;32;34149;-80
2022/03/02 12:07:41;;;;;;;;;;;;;;;12.08;25.72;100329.22;4434432;32;33248;-80
2022/03/02 12:10:15;;;;;;;;;;;;;;;12.21;25.74;100324.47;4454244;32;34732;-80
2022/03/02 12:12:42;;;;;;;;;;;;;;;12.59;24.28;100321.75;4431692;32;35155;-80
2022/03/02 12:15:10;;;;;;;;;;;;;;;12.57;24.03;100310.38;4448543;32;34589;-80
2022/03/02 12:17:38;;;;;;;;;;;;;;;12.88;24.14;100309.16;4424852;32;33382;-80
2022/03/02 12:20:05;;;;;;;;;;;;;;;12.73;23.95;100305.25;4429311;32;34560;-79
2022/03/02 12:22:35;;;;;;;;;;;;;;;12.77;25.12;100304.81;4438696;32;34584;-80
2022/03/02 12:25:02;;;;;;;;;;;;;;;13.21;23.09;100304.09;4454172;32;34351;-80
2022/03/02 12:27:30;;;;;;;;;;;;;;;13.47;24.23;100304.22;4456218;32;34230;-80
2022/03/02 12:29:59;;;;;;;;;;;;;;;13.62;23.15;100292.03;4444623;32;34787;-80
2022/03/02 12:32:30;;;;;;;;;;;;;;;13.25;22.82;100293.97;4445366;32;34642;-80
2022/03/02 12:34:58;;;;;;;;;;;;;;;13.33;23.03;100286.03;4448015;32;35114;-77
2022/03/02 12:37:26;;;;;;;;;;;;;;;13.77;23.60;100286.00;4453341;32;33880;-80
2022/03/02 12:39:54;;;;;;;;;;;;;;;13.61;22.37;100283.16;4437862;32;33758;-80
2022/03/02 12:42:21;;;;;;;;;;;;;;;13.59;22.43;100282.47;4456586;32;35367;-80
2022/03/02 12:44:54;;;;;;;;;;;;;;;13.66;22.82;100285.38;4424067;32;33891;-79
2022/03/02 12:47:22;;;;;;;;;;;;;;;13.65;21.84;100281.88;4455501;32;31869;-80
2022/03/02 12:49:50;;;;;;;;;;;;;;;13.91;22.63;100279.28;4421319;32;33496;-80
2022/03/02 12:52:19;;;;;;;;;;;;;;;13.87;22.96;100272.56;4432066;32;34927;-79
2022/03/02 12:54:48;;;;;;;;;;;;;;;13.78;21.85;100287.69;4418022;32;33406;-79
2022/03/02 12:57:16;;;;;;;;;;;;;;;14.03;22.09;100281.56;4440312;32;33312;-79
2022/03/02 12:59:43;;;;;;;;;;;;;;;15.81;20.16;100264.41;4425119;32;34329;-79